sensor_id;sensor_type;location;lat;lon;timestamp;temperature;humidity
38084;DHT22;23894;51.466;7.444;2023-03-01T00:01:02;-0.60;99.90
38084;DHT22;23894;51.466;7.444;2023-03-01T00:03:07;-0.60;99.90
38084;DHT22;23894;51.466;7.444;2023-03-01T00:05:08;-0.60;99.90
38084;DHT22;23894;51.466;7.444;2023-03-01T00:07:11;-0.60;99.90
38084;DHT22;23894;51.466;7.444;2023-03-01T00:09:15;-0.70;99.90
38084;DHT22;23894;51.466;7.444;2023-03-01T00:11:29;-0.70;99.90
38084;DHT22;23894;51.466;7.444;2023-03-01T00:13:35;-0.70;99.90
38084;DHT22;23894;51.466;7.444;2023-03-01T00:15:42;-0.70;99.90
38084;DHT22;23894;51.466;7.444;2023-03-01T00:17:46;-0.80;99.90
38084;DHT22;23894;51.466;7.444;2023-03-01T00:19:47;-0.80;99.90
38084;DHT22;23894;51.466;7.444;2023-03-01T00:21:48;-0.80;99.90
38084;DHT22;23894;51.466;7.444;2023-03-01T00:23:50;-0.80;99.90
38084;DHT22;23894;51.466;7.444;2023-03-01T00:25:51;-0.80;99.90
38084;DHT22;23894;51.466;7.444;2023-03-01T00:27:52;-0.80;99.90
38084;DHT22;23894;51.466;7.444;2023-03-01T00:29:56;-0.90;99.90
38084;DHT22;23894;51.466;7.444;2023-03-01T00:31:59;-0.80;99.90
38084;DHT22;23894;51.466;7.444;2023-03-01T00:34:03;-0.80;99.90
38084;DHT22;23894;51.466;7.444;2023-03-01T00:36:09;-0.90;99.90
38084;DHT22;23894;51.466;7.444;2023-03-01T00:38:12;-1.00;99.90
38084;DHT22;23894;51.466;7.444;2023-03-01T00:40:14;-1.00;99.90
38084;DHT22;23894;51.466;7.444;2023-03-01T00:42:18;-1.00;99.90
38084;DHT22;23894;51.466;7.444;2023-03-01T00:44:20;-1.00;99.90
38084;DHT22;23894;51.466;7.444;2023-03-01T00:46:25;-1.00;99.90
38084;DHT22;23894;51.466;7.444;2023-03-01T00:48:27;-1.10;99.90
38084;DHT22;23894;51.466;7.444;2023-03-01T00:50:29;-1.10;99.90
38084;DHT22;23894;51.466;7.444;2023-03-01T00:52:33;-1.10;99.90
38084;DHT22;23894;51.466;7.444;2023-03-01T00:54:33;-1.10;99.90
38084;DHT22;23894;51.466;7.444;2023-03-01T00:56:35;-1.20;99.90
38084;DHT22;23894;51.466;7.444;2023-03-01T00:58:39;-1.20;99.90
38084;DHT22;23894;51.466;7.444;2023-03-01T01:00:41;-1.20;99.90
38084;DHT22;23894;51.466;7.444;2023-03-01T01:02:43;-1.20;99.90
38084;DHT22;23894;51.466;7.444;2023-03-01T01:04:47;-1.20;99.90
38084;DHT22;23894;51.466;7.444;2023-03-01T01:06:49;-1.20;99.90
38084;DHT22;23894;51.466;7.444;2023-03-01T01:08:54;-1.20;99.90
38084;DHT22;23894;51.466;7.444;2023-03-01T01:10:56;-1.30;99.90
38084;DHT22;23894;51.466;7.444;2023-03-01T01:12:58;-1.30;99.90
38084;DHT22;23894;51.466;7.444;2023-03-01T01:14:59;-1.20;99.90
38084;DHT22;23894;51.466;7.444;2023-03-01T01:17:02;-1.20;99.90
38084;DHT22;23894;51.466;7.444;2023-03-01T01:19:05;-1.20;99.90
38084;DHT22;23894;51.466;7.444;2023-03-01T01:21:08;-1.30;99.90
38084;DHT22;23894;51.466;7.444;2023-03-01T01:23:09;-1.30;99.90
38084;DHT22;23894;51.466;7.444;2023-03-01T01:25:12;-1.30;99.90
38084;DHT22;23894;51.466;7.444;2023-03-01T01:27:14;-1.40;99.90
38084;DHT22;23894;51.466;7.444;2023-03-01T01:29:16;-1.40;99.90
38084;DHT22;23894;51.466;7.444;2023-03-01T01:31:19;-1.40;99.90
38084;DHT22;23894;51.466;7.444;2023-03-01T01:33:23;-1.40;99.90
38084;DHT22;23894;51.466;7.444;2023-03-01T01:35:23;-1.50;99.90
38084;DHT22;23894;51.466;7.444;2023-03-01T01:37:26;-1.50;99.90
38084;DHT22;23894;51.466;7.444;2023-03-01T01:39:32;-1.40;99.90
38084;DHT22;23894;51.466;7.444;2023-03-01T01:41:35;-1.40;99.90
38084;DHT22;23894;51.466;7.444;2023-03-01T01:44:19;-1.50;99.90
38084;DHT22;23894;51.466;7.444;2023-03-01T01:46:32;-1.50;99.90
38084;DHT22;23894;51.466;7.444;2023-03-01T01:48:55;-1.50;99.90
38084;DHT22;23894;51.466;7.444;2023-03-01T01:50:59;-1.50;99.90
38084;DHT22;23894;51.466;7.444;2023-03-01T01:53:05;-1.50;99.90
38084;DHT22;23894;51.466;7.444;2023-03-01T01:55:28;-1.60;99.90
38084;DHT22;23894;51.466;7.444;2023-03-01T01:59:45;-1.60;99.90
38084;DHT22;23894;51.466;7.444;2023-03-01T02:01:49;-1.60;99.90
38084;DHT22;23894;51.466;7.444;2023-03-01T02:03:50;-1.60;99.90
38084;DHT22;23894;51.466;7.444;2023-03-01T02:06:07;-1.60;99.90
38084;DHT22;23894;51.466;7.444;2023-03-01T02:08:16;-1.60;99.90
38084;DHT22;23894;51.466;7.444;2023-03-01T02:10:23;-1.70;99.90
38084;DHT22;23894;51.466;7.444;2023-03-01T02:12:26;-1.70;99.90
38084;DHT22;23894;51.466;7.444;2023-03-01T02:14:28;-1.70;99.90
38084;DHT22;23894;51.466;7.444;2023-03-01T02:16:32;-1.70;99.90
38084;DHT22;23894;51.466;7.444;2023-03-01T02:18:35;-1.70;99.90
38084;DHT22;23894;51.466;7.444;2023-03-01T02:23:11;-1.70;99.90
38084;DHT22;23894;51.466;7.444;2023-03-01T02:25:58;-1.70;99.90
38084;DHT22;23894;51.466;7.444;2023-03-01T02:28:21;-1.80;99.90
38084;DHT22;23894;51.466;7.444;2023-03-01T02:30:33;-1.80;99.90
38084;DHT22;23894;51.466;7.444;2023-03-01T02:32:34;-1.80;99.90
38084;DHT22;23894;51.466;7.444;2023-03-01T02:34:37;-1.80;99.90
38084;DHT22;23894;51.466;7.444;2023-03-01T02:36:49;-1.80;99.90
38084;DHT22;23894;51.466;7.444;2023-03-01T02:39:09;-1.80;99.90
38084;DHT22;23894;51.466;7.444;2023-03-01T02:41:16;-1.80;99.90
38084;DHT22;23894;51.466;7.444;2023-03-01T02:43:21;-1.90;99.90
38084;DHT22;23894;51.466;7.444;2023-03-01T02:45:26;-1.90;99.90
38084;DHT22;23894;51.466;7.444;2023-03-01T02:47:28;-1.90;99.90
38084;DHT22;23894;51.466;7.444;2023-03-01T02:49:31;-1.90;99.90
38084;DHT22;23894;51.466;7.444;2023-03-01T02:52:01;-1.90;99.90
38084;DHT22;23894;51.466;7.444;2023-03-01T02:56:48;-1.90;99.90
38084;DHT22;23894;51.466;7.444;2023-03-01T02:58:55;-2.00;99.90
38084;DHT22;23894;51.466;7.444;2023-03-01T03:01:05;-2.00;99.90
38084;DHT22;23894;51.466;7.444;2023-03-01T03:03:07;-2.00;99.90
38084;DHT22;23894;51.466;7.444;2023-03-01T03:05:19;-2.00;99.90
38084;DHT22;23894;51.466;7.444;2023-03-01T03:07:20;-2.00;99.90
38084;DHT22;23894;51.466;7.444;2023-03-01T03:09:23;-2.00;99.90
38084;DHT22;23894;51.466;7.444;2023-03-01T03:11:26;-2.10;99.90
38084;DHT22;23894;51.466;7.444;2023-03-01T03:13:29;-2.10;99.90
38084;DHT22;23894;51.466;7.444;2023-03-01T03:15:30;-2.10;99.90
38084;DHT22;23894;51.466;7.444;2023-03-01T03:17:32;-2.10;99.90
38084;DHT22;23894;51.466;7.444;2023-03-01T03:19:32;-2.10;99.90
38084;DHT22;23894;51.466;7.444;2023-03-01T03:21:36;-2.10;99.90
38084;DHT22;23894;51.466;7.444;2023-03-01T03:23:37;-2.10;99.90
38084;DHT22;23894;51.466;7.444;2023-03-01T03:25:42;-2.10;99.90
38084;DHT22;23894;51.466;7.444;2023-03-01T03:27:46;-2.20;99.90
38084;DHT22;23894;51.466;7.444;2023-03-01T03:29:48;-2.20;99.90
38084;DHT22;23894;51.466;7.444;2023-03-01T03:31:50;-2.20;99.90
38084;DHT22;23894;51.466;7.444;2023-03-01T03:33:52;-2.30;99.90
38084;DHT22;23894;51.466;7.444;2023-03-01T03:35:55;-2.30;99.90
38084;DHT22;23894;51.466;7.444;2023-03-01T03:37:59;-2.40;99.90
38084;DHT22;23894;51.466;7.444;2023-03-01T03:40:11;-2.40;99.90
38084;DHT22;23894;51.466;7.444;2023-03-01T03:42:17;-2.40;99.90
38084;DHT22;23894;51.466;7.444;2023-03-01T03:44:20;-2.40;99.90
38084;DHT22;23894;51.466;7.444;2023-03-01T03:46:22;-2.50;99.90
38084;DHT22;23894;51.466;7.444;2023-03-01T03:48:24;-2.50;99.90
38084;DHT22;23894;51.466;7.444;2023-03-01T03:50:25;-2.50;99.90
38084;DHT22;23894;51.466;7.444;2023-03-01T03:52:27;-2.50;99.90
38084;DHT22;23894;51.466;7.444;2023-03-01T03:54:29;-2.50;99.90
38084;DHT22;23894;51.466;7.444;2023-03-01T03:56:31;-2.50;99.90
38084;DHT22;23894;51.466;7.444;2023-03-01T03:58:54;-2.50;99.90
38084;DHT22;23894;51.466;7.444;2023-03-01T04:00:56;-2.60;99.90
38084;DHT22;23894;51.466;7.444;2023-03-01T04:02:58;-2.60;99.90
38084;DHT22;23894;51.466;7.444;2023-03-01T04:05:00;-2.60;99.90
38084;DHT22;23894;51.466;7.444;2023-03-01T04:07:03;-2.60;99.90
38084;DHT22;23894;51.466;7.444;2023-03-01T04:09:05;-2.60;99.90
38084;DHT22;23894;51.466;7.444;2023-03-01T04:11:07;-2.60;99.90
38084;DHT22;23894;51.466;7.444;2023-03-01T04:13:28;-2.60;99.90
38084;DHT22;23894;51.466;7.444;2023-03-01T04:15:30;-2.60;99.90
38084;DHT22;23894;51.466;7.444;2023-03-01T04:17:34;-2.60;99.90
38084;DHT22;23894;51.466;7.444;2023-03-01T04:19:37;-2.70;99.90
38084;DHT22;23894;51.466;7.444;2023-03-01T04:21:40;-2.70;99.90
38084;DHT22;23894;51.466;7.444;2023-03-01T04:23:43;-2.70;99.90
38084;DHT22;23894;51.466;7.444;2023-03-01T04:25:55;-2.60;99.90
38084;DHT22;23894;51.466;7.444;2023-03-01T04:27:58;-2.60;99.90
38084;DHT22;23894;51.466;7.444;2023-03-01T04:30:00;-2.60;99.90
38084;DHT22;23894;51.466;7.444;2023-03-01T04:32:08;-2.60;99.90
38084;DHT22;23894;51.466;7.444;2023-03-01T04:34:10;-2.70;99.90
38084;DHT22;23894;51.466;7.444;2023-03-01T04:36:13;-2.70;99.90
38084;DHT22;23894;51.466;7.444;2023-03-01T04:38:18;-2.80;99.90
38084;DHT22;23894;51.466;7.444;2023-03-01T04:40:19;-2.80;99.90
38084;DHT22;23894;51.466;7.444;2023-03-01T04:42:21;-2.70;99.90
38084;DHT22;23894;51.466;7.444;2023-03-01T04:44:22;-2.70;99.90
38084;DHT22;23894;51.466;7.444;2023-03-01T04:46:25;-2.70;99.90
38084;DHT22;23894;51.466;7.444;2023-03-01T04:48:27;-2.70;99.90
38084;DHT22;23894;51.466;7.444;2023-03-01T04:50:29;-2.70;99.90
38084;DHT22;23894;51.466;7.444;2023-03-01T04:52:32;-2.80;99.90
38084;DHT22;23894;51.466;7.444;2023-03-01T04:54:39;-2.80;99.90
38084;DHT22;23894;51.466;7.444;2023-03-01T04:56:39;-2.80;99.90
38084;DHT22;23894;51.466;7.444;2023-03-01T04:58:41;-2.80;99.90
38084;DHT22;23894;51.466;7.444;2023-03-01T05:00:43;-2.90;99.90
38084;DHT22;23894;51.466;7.444;2023-03-01T05:02:58;-2.80;99.90
38084;DHT22;23894;51.466;7.444;2023-03-01T05:05:01;-2.80;99.90
38084;DHT22;23894;51.466;7.444;2023-03-01T05:07:02;-2.80;99.90
38084;DHT22;23894;51.466;7.444;2023-03-01T05:09:04;-2.90;99.90
38084;DHT22;23894;51.466;7.444;2023-03-01T05:11:08;-2.90;99.90
38084;DHT22;23894;51.466;7.444;2023-03-01T05:13:15;-2.90;99.90
38084;DHT22;23894;51.466;7.444;2023-03-01T05:15:24;-2.90;99.90
38084;DHT22;23894;51.466;7.444;2023-03-01T05:17:30;-2.90;99.90
38084;DHT22;23894;51.466;7.444;2023-03-01T05:19:33;-2.90;99.90
38084;DHT22;23894;51.466;7.444;2023-03-01T05:21:35;-3.00;99.90
38084;DHT22;23894;51.466;7.444;2023-03-01T05:23:59;-3.00;99.90
38084;DHT22;23894;51.466;7.444;2023-03-01T05:26:01;-3.00;99.90
38084;DHT22;23894;51.466;7.444;2023-03-01T05:28:06;-3.00;99.90
38084;DHT22;23894;51.466;7.444;2023-03-01T05:30:10;-2.90;99.90
38084;DHT22;23894;51.466;7.444;2023-03-01T05:32:17;-2.90;99.90
38084;DHT22;23894;51.466;7.444;2023-03-01T05:34:26;-2.90;99.90
38084;DHT22;23894;51.466;7.444;2023-03-01T05:36:27;-2.90;99.90
38084;DHT22;23894;51.466;7.444;2023-03-01T05:38:29;-2.90;99.90
38084;DHT22;23894;51.466;7.444;2023-03-01T05:40:33;-3.00;99.90
38084;DHT22;23894;51.466;7.444;2023-03-01T05:42:35;-3.00;99.90
38084;DHT22;23894;51.466;7.444;2023-03-01T05:44:38;-3.00;99.90
38084;DHT22;23894;51.466;7.444;2023-03-01T05:46:40;-3.10;99.90
38084;DHT22;23894;51.466;7.444;2023-03-01T05:48:41;-3.10;99.90
38084;DHT22;23894;51.466;7.444;2023-03-01T05:50:47;-3.10;99.90
38084;DHT22;23894;51.466;7.444;2023-03-01T05:54:59;-3.00;99.90
38084;DHT22;23894;51.466;7.444;2023-03-01T05:57:01;-3.00;99.90
38084;DHT22;23894;51.466;7.444;2023-03-01T05:59:05;-3.10;99.90
38084;DHT22;23894;51.466;7.444;2023-03-01T06:01:12;-3.10;99.90
38084;DHT22;23894;51.466;7.444;2023-03-01T06:03:16;-3.10;99.90
38084;DHT22;23894;51.466;7.444;2023-03-01T06:05:20;-3.10;99.90
38084;DHT22;23894;51.466;7.444;2023-03-01T06:07:21;-3.10;99.90
38084;DHT22;23894;51.466;7.444;2023-03-01T06:09:23;-3.10;99.90
38084;DHT22;23894;51.466;7.444;2023-03-01T06:11:27;-3.10;99.90
38084;DHT22;23894;51.466;7.444;2023-03-01T06:13:29;-3.10;99.90
38084;DHT22;23894;51.466;7.444;2023-03-01T06:15:34;-3.10;99.90
38084;DHT22;23894;51.466;7.444;2023-03-01T06:17:42;-3.10;99.90
38084;DHT22;23894;51.466;7.444;2023-03-01T06:19:43;-3.20;99.90
38084;DHT22;23894;51.466;7.444;2023-03-01T06:21:45;-3.20;99.90
38084;DHT22;23894;51.466;7.444;2023-03-01T06:23:48;-3.20;99.90
38084;DHT22;23894;51.466;7.444;2023-03-01T06:25:50;-3.20;99.90
38084;DHT22;23894;51.466;7.444;2023-03-01T06:27:52;-3.10;99.90
38084;DHT22;23894;51.466;7.444;2023-03-01T06:29:54;-3.20;99.90
38084;DHT22;23894;51.466;7.444;2023-03-01T06:31:54;-3.10;99.90
38084;DHT22;23894;51.466;7.444;2023-03-01T06:33:56;-3.10;99.90
38084;DHT22;23894;51.466;7.444;2023-03-01T06:35:58;-3.10;99.90
38084;DHT22;23894;51.466;7.444;2023-03-01T06:38:02;-3.10;99.90
38084;DHT22;23894;51.466;7.444;2023-03-01T06:40:04;-3.10;99.90
38084;DHT22;23894;51.466;7.444;2023-03-01T06:42:09;-3.10;99.90
38084;DHT22;23894;51.466;7.444;2023-03-01T06:44:16;-3.10;99.90
38084;DHT22;23894;51.466;7.444;2023-03-01T06:46:18;-3.10;99.90
38084;DHT22;23894;51.466;7.444;2023-03-01T06:48:22;-3.00;99.90
38084;DHT22;23894;51.466;7.444;2023-03-01T06:50:24;-3.00;99.90
38084;DHT22;23894;51.466;7.444;2023-03-01T06:52:26;-3.00;99.90
38084;DHT22;23894;51.466;7.444;2023-03-01T06:54:26;-3.00;99.90
38084;DHT22;23894;51.466;7.444;2023-03-01T06:56:29;-3.00;99.90
38084;DHT22;23894;51.466;7.444;2023-03-01T06:58:32;-3.00;99.90
38084;DHT22;23894;51.466;7.444;2023-03-01T07:00:34;-2.90;99.90
38084;DHT22;23894;51.466;7.444;2023-03-01T07:02:36;-2.90;99.90
38084;DHT22;23894;51.466;7.444;2023-03-01T07:04:39;-2.90;99.90
38084;DHT22;23894;51.466;7.444;2023-03-01T07:06:41;-2.80;99.90
38084;DHT22;23894;51.466;7.444;2023-03-01T07:08:43;-2.80;99.90
38084;DHT22;23894;51.466;7.444;2023-03-01T07:10:45;-2.80;99.90
38084;DHT22;23894;51.466;7.444;2023-03-01T07:12:47;-2.70;99.90
38084;DHT22;23894;51.466;7.444;2023-03-01T07:14:49;-2.70;99.90
38084;DHT22;23894;51.466;7.444;2023-03-01T07:16:50;-2.60;99.90
38084;DHT22;23894;51.466;7.444;2023-03-01T07:18:52;-2.50;99.90
38084;DHT22;23894;51.466;7.444;2023-03-01T07:20:56;-2.50;99.90
38084;DHT22;23894;51.466;7.444;2023-03-01T07:22:57;-2.40;99.90
38084;DHT22;23894;51.466;7.444;2023-03-01T07:24:59;-2.30;99.90
38084;DHT22;23894;51.466;7.444;2023-03-01T07:27:01;-2.30;99.90
38084;DHT22;23894;51.466;7.444;2023-03-01T07:29:05;-2.20;99.90
38084;DHT22;23894;51.466;7.444;2023-03-01T07:31:06;-2.10;99.90
38084;DHT22;23894;51.466;7.444;2023-03-01T07:33:08;-2.00;99.90
38084;DHT22;23894;51.466;7.444;2023-03-01T07:35:10;-2.00;99.90
38084;DHT22;23894;51.466;7.444;2023-03-01T07:37:12;-1.90;99.90
38084;DHT22;23894;51.466;7.444;2023-03-01T07:39:13;-1.70;99.90
38084;DHT22;23894;51.466;7.444;2023-03-01T07:41:15;-1.60;99.90
38084;DHT22;23894;51.466;7.444;2023-03-01T07:43:16;-1.50;99.90
38084;DHT22;23894;51.466;7.444;2023-03-01T07:45:16;-1.40;99.90
38084;DHT22;23894;51.466;7.444;2023-03-01T07:47:18;-1.30;99.90
38084;DHT22;23894;51.466;7.444;2023-03-01T07:49:21;-1.20;99.90
38084;DHT22;23894;51.466;7.444;2023-03-01T07:51:24;-1.10;99.90
38084;DHT22;23894;51.466;7.444;2023-03-01T07:53:27;-0.90;99.90
38084;DHT22;23894;51.466;7.444;2023-03-01T07:55:31;-0.80;99.90
38084;DHT22;23894;51.466;7.444;2023-03-01T07:57:33;-0.60;99.90
38084;DHT22;23894;51.466;7.444;2023-03-01T07:59:36;-0.50;99.90
38084;DHT22;23894;51.466;7.444;2023-03-01T08:01:38;-0.40;99.90
38084;DHT22;23894;51.466;7.444;2023-03-01T08:03:38;-0.30;99.90
38084;DHT22;23894;51.466;7.444;2023-03-01T08:05:42;-0.10;99.90
38084;DHT22;23894;51.466;7.444;2023-03-01T08:07:44;0.00;99.90
38084;DHT22;23894;51.466;7.444;2023-03-01T08:09:47;0.10;99.90
38084;DHT22;23894;51.466;7.444;2023-03-01T08:11:47;0.20;99.90
38084;DHT22;23894;51.466;7.444;2023-03-01T08:13:49;0.40;99.90
38084;DHT22;23894;51.466;7.444;2023-03-01T08:15:51;0.50;99.90
38084;DHT22;23894;51.466;7.444;2023-03-01T08:17:53;0.60;99.90
38084;DHT22;23894;51.466;7.444;2023-03-01T08:19:54;0.70;99.90
38084;DHT22;23894;51.466;7.444;2023-03-01T08:21:57;0.90;99.90
38084;DHT22;23894;51.466;7.444;2023-03-01T08:24:00;1.00;99.90
38084;DHT22;23894;51.466;7.444;2023-03-01T08:26:19;1.10;99.90
38084;DHT22;23894;51.466;7.444;2023-03-01T08:28:22;1.20;99.90
38084;DHT22;23894;51.466;7.444;2023-03-01T08:30:24;1.30;99.90
38084;DHT22;23894;51.466;7.444;2023-03-01T08:32:26;1.40;99.90
38084;DHT22;23894;51.466;7.444;2023-03-01T08:34:29;1.50;99.90
38084;DHT22;23894;51.466;7.444;2023-03-01T08:36:36;1.60;99.90
38084;DHT22;23894;51.466;7.444;2023-03-01T08:38:40;1.70;99.90
38084;DHT22;23894;51.466;7.444;2023-03-01T08:40:41;1.80;99.90
38084;DHT22;23894;51.466;7.444;2023-03-01T08:42:42;2.00;99.90
38084;DHT22;23894;51.466;7.444;2023-03-01T08:44:49;2.10;99.90
38084;DHT22;23894;51.466;7.444;2023-03-01T08:46:56;2.20;99.90
38084;DHT22;23894;51.466;7.444;2023-03-01T08:48:59;2.30;99.90
38084;DHT22;23894;51.466;7.444;2023-03-01T08:51:16;2.40;99.90
38084;DHT22;23894;51.466;7.444;2023-03-01T08:53:18;2.70;99.90
38084;DHT22;23894;51.466;7.444;2023-03-01T08:55:20;2.80;99.90
38084;DHT22;23894;51.466;7.444;2023-03-01T08:57:25;2.90;99.90
38084;DHT22;23894;51.466;7.444;2023-03-01T08:59:28;3.00;99.90
38084;DHT22;23894;51.466;7.444;2023-03-01T09:01:31;3.10;99.90
38084;DHT22;23894;51.466;7.444;2023-03-01T09:03:35;3.30;99.90
38084;DHT22;23894;51.466;7.444;2023-03-01T09:05:35;3.40;99.90
38084;DHT22;23894;51.466;7.444;2023-03-01T09:07:39;3.60;99.90
38084;DHT22;23894;51.466;7.444;2023-03-01T09:09:41;3.60;99.90
38084;DHT22;23894;51.466;7.444;2023-03-01T09:11:44;3.70;99.90
38084;DHT22;23894;51.466;7.444;2023-03-01T09:14:05;3.70;99.90
38084;DHT22;23894;51.466;7.444;2023-03-01T09:16:08;3.80;99.90
38084;DHT22;23894;51.466;7.444;2023-03-01T09:18:09;4.00;99.90
38084;DHT22;23894;51.466;7.444;2023-03-01T09:20:13;4.20;99.90
38084;DHT22;23894;51.466;7.444;2023-03-01T09:22:13;4.30;99.90
38084;DHT22;23894;51.466;7.444;2023-03-01T09:24:15;4.40;99.90
38084;DHT22;23894;51.466;7.444;2023-03-01T09:26:20;4.40;99.90
38084;DHT22;23894;51.466;7.444;2023-03-01T09:28:27;4.50;99.90
38084;DHT22;23894;51.466;7.444;2023-03-01T09:30:28;4.50;99.90
38084;DHT22;23894;51.466;7.444;2023-03-01T09:32:32;4.50;99.90
38084;DHT22;23894;51.466;7.444;2023-03-01T09:34:35;4.50;99.90
38084;DHT22;23894;51.466;7.444;2023-03-01T09:36:57;4.60;99.90
38084;DHT22;23894;51.466;7.444;2023-03-01T09:38:59;4.70;99.90
38084;DHT22;23894;51.466;7.444;2023-03-01T09:41:00;4.80;99.90
38084;DHT22;23894;51.466;7.444;2023-03-01T09:43:13;4.80;99.90
38084;DHT22;23894;51.466;7.444;2023-03-01T09:45:26;4.90;99.90
38084;DHT22;23894;51.466;7.444;2023-03-01T09:47:35;4.90;99.90
38084;DHT22;23894;51.466;7.444;2023-03-01T09:50:20;5.00;99.90
38084;DHT22;23894;51.466;7.444;2023-03-01T09:55:01;5.10;99.90
38084;DHT22;23894;51.466;7.444;2023-03-01T12:50:47;30.30;99.90
38084;DHT22;23894;51.466;7.444;2023-03-01T12:52:59;30.20;99.90
38084;DHT22;23894;51.466;7.444;2023-03-01T12:55:00;30.30;99.90
38084;DHT22;23894;51.466;7.444;2023-03-01T12:57:17;30.20;99.90
38084;DHT22;23894;51.466;7.444;2023-03-01T12:59:37;30.40;99.90
38084;DHT22;23894;51.466;7.444;2023-03-01T13:04:15;30.70;99.90
38084;DHT22;23894;51.466;7.444;2023-03-01T13:11:32;30.30;99.90
38084;DHT22;23894;51.466;7.444;2023-03-01T13:13:36;30.00;99.90
38084;DHT22;23894;51.466;7.444;2023-03-01T13:15:37;29.60;99.90
38084;DHT22;23894;51.466;7.444;2023-03-01T13:18:02;29.70;99.90
38084;DHT22;23894;51.466;7.444;2023-03-01T13:20:13;29.60;99.90
38084;DHT22;23894;51.466;7.444;2023-03-01T13:22:27;29.60;99.90
38084;DHT22;23894;51.466;7.444;2023-03-01T13:24:40;29.50;99.90
38084;DHT22;23894;51.466;7.444;2023-03-01T13:27:09;29.30;99.90
38084;DHT22;23894;51.466;7.444;2023-03-01T13:29:25;29.10;99.90
38084;DHT22;23894;51.466;7.444;2023-03-01T13:33:50;29.00;99.90
38084;DHT22;23894;51.466;7.444;2023-03-01T13:37:08;29.10;99.90
38084;DHT22;23894;51.466;7.444;2023-03-01T13:41:00;29.20;99.90
38084;DHT22;23894;51.466;7.444;2023-03-01T13:43:28;29.00;99.90
38084;DHT22;23894;51.466;7.444;2023-03-01T13:45:42;29.00;99.90
38084;DHT22;23894;51.466;7.444;2023-03-01T13:47:45;28.80;99.90
38084;DHT22;23894;51.466;7.444;2023-03-01T13:50:03;28.80;99.90
38084;DHT22;23894;51.466;7.444;2023-03-01T13:52:06;28.40;99.90
38084;DHT22;23894;51.466;7.444;2023-03-01T13:54:16;27.80;99.90
38084;DHT22;23894;51.466;7.444;2023-03-01T13:56:36;26.90;99.90
38084;DHT22;23894;51.466;7.444;2023-03-01T13:59:20;26.30;99.90
38084;DHT22;23894;51.466;7.444;2023-03-01T14:01:36;25.40;99.90
38084;DHT22;23894;51.466;7.444;2023-03-01T14:03:41;23.50;99.90
38084;DHT22;23894;51.466;7.444;2023-03-01T14:06:07;21.90;99.90
38084;DHT22;23894;51.466;7.444;2023-03-01T14:08:21;20.70;99.90
38084;DHT22;23894;51.466;7.444;2023-03-01T14:10:39;19.50;99.90
38084;DHT22;23894;51.466;7.444;2023-03-01T14:18:57;17.90;99.90
38084;DHT22;23894;51.466;7.444;2023-03-01T14:20:57;17.90;99.90
38084;DHT22;23894;51.466;7.444;2023-03-01T14:23:00;18.20;99.90
38084;DHT22;23894;51.466;7.444;2023-03-01T14:27:38;18.90;99.90
38084;DHT22;23894;51.466;7.444;2023-03-01T14:29:59;20.00;99.90
38084;DHT22;23894;51.466;7.444;2023-03-01T14:32:33;21.10;99.90
38084;DHT22;23894;51.466;7.444;2023-03-01T14:34:35;22.00;99.90
38084;DHT22;23894;51.466;7.444;2023-03-01T14:36:37;22.70;99.90
38084;DHT22;23894;51.466;7.444;2023-03-01T14:38:47;23.10;99.90
38084;DHT22;23894;51.466;7.444;2023-03-01T14:40:57;23.40;99.90
38084;DHT22;23894;51.466;7.444;2023-03-01T14:43:01;23.60;99.90
38084;DHT22;23894;51.466;7.444;2023-03-01T14:45:04;23.60;99.90
38084;DHT22;23894;51.466;7.444;2023-03-01T14:47:14;23.60;99.90
38084;DHT22;23894;51.466;7.444;2023-03-01T14:49:28;23.60;99.90
38084;DHT22;23894;51.466;7.444;2023-03-01T14:51:35;23.60;99.90
38084;DHT22;23894;51.466;7.444;2023-03-01T14:53:36;23.40;99.90
38084;DHT22;23894;51.466;7.444;2023-03-01T14:55:45;23.30;99.90
38084;DHT22;23894;51.466;7.444;2023-03-01T14:57:57;23.30;99.90
38084;DHT22;23894;51.466;7.444;2023-03-01T15:00:02;23.30;99.90
38084;DHT22;23894;51.466;7.444;2023-03-01T15:02:14;23.30;99.90
38084;DHT22;23894;51.466;7.444;2023-03-01T15:04:23;23.00;99.90
38084;DHT22;23894;51.466;7.444;2023-03-01T15:06:25;22.70;99.90
38084;DHT22;23894;51.466;7.444;2023-03-01T15:08:29;22.40;99.90
38084;DHT22;23894;51.466;7.444;2023-03-01T15:10:35;22.00;99.90
38084;DHT22;23894;51.466;7.444;2023-03-01T15:12:43;21.60;99.90
38084;DHT22;23894;51.466;7.444;2023-03-01T15:14:45;21.20;99.90
38084;DHT22;23894;51.466;7.444;2023-03-01T15:16:50;20.90;99.90
38084;DHT22;23894;51.466;7.444;2023-03-01T15:19:00;20.40;99.90
